Terminal Aerodrome Forecast
Issued by NWS

Home | Current Version | Previous Version | Text Only | Print | Product List | Glossary On
Versions: 1 2 3 4 5 6 7 8 9 10 11 12 13 14 15 16 17 18 19
000
FTUS46 KLOX 180500
TAFSBP
TAF
KSBP 180532Z 1806/1906 VRB03KT P6SM SKC
     FM181000 VRB03KT 4SM BR OVC004
     FM181500 19002KT 6SM BR OVC005
     FM181700 22004KT P6SM BKN010
     FM181900 26006KT P6SM SCT015
     FM182100 29012KT P6SM SKC
     FM190200 VRB03KT P6SM BKN025=

USA.gov is the U.S. government's official web portal to all federal, state and local government web resources and services.